Quick Links (Output Below):   Max & Min Temps   /   Climate Reports   /   Zone Forecasts
River Forecasts   /   Forestry Forecasts   /   Aviation Forecasts   /   Radars   /   Features

Terminal Aerodrome Forecast (Texarkana)

Pick a Site:
Arkadelphia | El Dorado | Fayetteville | Fort Smith | Harrison | Highfill | Hot Springs | Jonesboro
Little Rock | Monticello | Mountain Home | Pine Bluff | Texarkana
 Forecast 

KTXK 012334Z 0200/0224 30015G25KT P6SM BKN120
     FM021100 35008KT P6SM SKC
     FM021800 34004KT P6SM SKC=


 Latest METARs (Observations) 
How to Decode METARs
01Z KTXK 020053Z 32017G24KT 10SM BKN120 07/M01 A3005 RMK AO2 PK WND
         30026/0034 SLP176 T00671011
         
00Z KTXK 012353Z 32011KT 10SM FEW120 07/01 A3000 RMK AO2 PK WND
         32028/2258 SLP159 60000 T00720006 10144 20072 53036
         
***** Today's Observations (Above) *****


23Z KTXK 012253Z 30017G22KT 10SM FEW100 10/02 A2996 RMK AO2 PK WND
         32028/2215 SLP144 T01000022
         
22Z KTXK 012153Z 30016G22KT 10SM SCT090 12/04 A2992 RMK AO2 PK WND
         31030/2123 SLP129 T01170044
         
21Z KTXK 012053Z 30020G25KT 10SM FEW021 SCT029 BKN090 13/07 A2990 RMK
         AO2 SLP122 60000 T01280067 53015
         
20Z KTXK 011953Z 30015G24KT 10SM SCT017 BKN029 OVC050 13/09 A2986 RMK
         AO2 SLP110 T01280089
         
19Z KTXK 011853Z 30012G19KT 10SM SCT017 SCT024 OVC050 14/11 A2985 RMK
         AO2 RAE1758 SLP106 P0000 T01390111
         
18Z KTXK 011753Z 30009KT 10SM -RA SCT013 BKN043 OVC095 13/12 A2985 RMK
         AO2 SLP106 P0007 60046 T01330122 10144 20128 50011
         
17Z KTXK 011653Z 32006KT 2SM +RA BR FEW009 BKN049 OVC070 13/12 A2986
         RMK AO2 WSHFT 1618 RAB1557 SLP110 P0035 T01280122
         
16Z KTXK 011553Z 20010KT 3SM BR OVC004 14/14 A2982 RMK AO2
         RAB06E24B44E51 SLP095 P0001 T01440144
         
***** Yesterday's Observations (Above) *****


Back to Main Page
http://www.srh.noaa.gov/lzk/qfcst.php

USA.gov is the U.S. government's official web portal to all federal, state and local government web resources and services.